createdAt,value
2023-04-16T00:00:46.556Z,17.60
2023-04-16T00:03:35.267Z,19.80
2023-04-16T00:06:04.483Z,18.90
2023-04-16T00:08:37.484Z,18.40
2023-04-16T00:11:06.363Z,15.80
2023-04-16T00:13:35.856Z,14.40
2023-04-16T00:16:08.335Z,15.10
2023-04-16T00:18:38.547Z,16.10
2023-04-16T00:21:15.234Z,14.00
2023-04-16T00:23:53.145Z,15.70
2023-04-16T00:26:44.438Z,16.10
2023-04-16T00:29:13.552Z,13.50
2023-04-16T00:31:44.704Z,13.80
2023-04-16T00:34:16.313Z,16.10
2023-04-16T00:36:52.616Z,14.60
2023-04-16T00:39:23.744Z,14.60
2023-04-16T00:41:52.651Z,15.30
2023-04-16T00:44:21.426Z,13.80
2023-04-16T00:46:56.769Z,15.90
2023-04-16T00:49:28.267Z,16.90
2023-04-16T00:52:04.284Z,12.20
2023-04-16T00:54:38.899Z,17.50
2023-04-16T00:57:10.359Z,13.70
2023-04-16T00:59:41.906Z,14.10
2023-04-16T01:02:17.388Z,13.20
2023-04-16T01:04:52.185Z,13.60
2023-04-16T01:07:20.970Z,14.40
2023-04-16T01:09:49.756Z,14.70
2023-04-16T01:12:28.587Z,13.50
2023-04-16T01:15:13.363Z,17.40
2023-04-16T01:17:51.418Z,17.60
2023-04-16T01:20:26.291Z,18.40
2023-04-16T01:23:02.565Z,16.60
2023-04-16T01:25:31.821Z,19.50
2023-04-16T01:28:03.100Z,19.60
2023-04-16T01:30:31.995Z,21.20
2023-04-16T01:33:14.715Z,19.50
2023-04-16T01:35:46.461Z,20.70
2023-04-16T01:38:17.500Z,21.00
2023-04-16T01:40:59.655Z,19.60
2023-04-16T01:43:30.854Z,20.90
2023-04-16T01:46:15.840Z,19.60
2023-04-16T01:48:45.277Z,18.90
2023-04-16T01:51:17.187Z,18.80
2023-04-16T01:53:47.089Z,17.50
2023-04-16T01:56:25.182Z,13.10
2023-04-16T01:58:54.019Z,18.90
2023-04-16T02:01:32.934Z,17.60
2023-04-16T02:04:06.751Z,18.30
2023-04-16T02:06:35.322Z,19.10
2023-04-16T02:09:15.682Z,18.10
2023-04-16T02:11:46.959Z,20.60
2023-04-16T02:14:21.331Z,21.50
2023-04-16T02:16:55.624Z,21.50
2023-04-16T02:19:44.517Z,21.10
2023-04-16T02:22:14.933Z,18.50
2023-04-16T02:24:51.508Z,20.20
2023-04-16T02:27:35.047Z,19.80
2023-04-16T02:30:13.245Z,20.40
2023-04-16T02:32:51.628Z,16.90
2023-04-16T02:35:23.411Z,16.90
2023-04-16T02:37:54.457Z,14.60
2023-04-16T02:40:26.932Z,19.20
2023-04-16T02:43:00.648Z,18.40
2023-04-16T02:45:37.767Z,19.00
2023-04-16T02:48:10.192Z,16.80
2023-04-16T02:50:39.099Z,17.70
2023-04-16T02:53:14.018Z,16.10
2023-04-16T02:55:52.743Z,16.50
2023-04-16T02:58:26.677Z,15.10
2023-04-16T03:01:00.739Z,14.60
2023-04-16T03:03:35.053Z,17.70
2023-04-16T03:06:10.426Z,16.90
2023-04-16T03:08:44.848Z,17.50
2023-04-16T03:11:22.227Z,16.80
2023-04-16T03:14:19.033Z,13.70
2023-04-16T03:16:47.992Z,18.10
2023-04-16T03:19:22.810Z,18.10
2023-04-16T03:22:21.901Z,17.50
2023-04-16T03:24:56.727Z,15.00
2023-04-16T03:27:34.640Z,17.70
2023-04-16T03:30:20.930Z,17.80
2023-04-16T03:32:52.330Z,19.50
2023-04-16T03:35:28.440Z,18.30
2023-04-16T03:37:57.353Z,19.80
2023-04-16T03:40:32.053Z,19.80
2023-04-16T03:43:04.359Z,18.80
2023-04-16T03:45:45.308Z,20.10
2023-04-16T03:48:21.825Z,19.20
2023-04-16T03:50:50.504Z,19.70
2023-04-16T03:53:26.213Z,21.20
2023-04-16T03:55:57.776Z,19.30
2023-04-16T03:58:26.766Z,22.20
2023-04-16T04:00:58.722Z,23.50
2023-04-16T04:03:34.196Z,23.80
2023-04-16T04:06:15.890Z,23.40
2023-04-16T04:08:50.183Z,27.30
2023-04-16T04:11:22.150Z,29.50
2023-04-16T04:13:53.699Z,29.00
2023-04-16T04:16:30.011Z,28.10
2023-04-16T04:19:04.669Z,31.60
2023-04-16T04:21:33.573Z,29.30
2023-04-16T04:24:04.921Z,23.50
2023-04-16T04:26:39.443Z,28.40
2023-04-16T04:29:17.046Z,30.60
2023-04-16T04:31:48.554Z,31.50
2023-04-16T04:34:27.943Z,35.10
2023-04-16T04:36:59.992Z,31.10
2023-04-16T04:39:32.673Z,29.10
2023-04-16T04:42:03.453Z,27.70
2023-04-16T04:44:37.732Z,27.70
2023-04-16T04:47:15.059Z,29.50
2023-04-16T04:49:53.113Z,31.80
2023-04-16T04:52:22.316Z,32.70
2023-04-16T04:55:05.956Z,28.40
2023-04-16T04:57:46.616Z,28.60
2023-04-16T05:00:38.664Z,23.60
2023-04-16T05:03:12.531Z,24.40
2023-04-16T05:05:44.031Z,25.60
2023-04-16T05:08:15.989Z,20.40
2023-04-16T05:10:47.381Z,25.10
2023-04-16T05:13:36.292Z,28.30
2023-04-16T05:16:08.265Z,28.80
2023-04-16T05:18:45.691Z,22.80
2023-04-16T05:21:19.768Z,23.10
2023-04-16T05:23:53.770Z,23.70
2023-04-16T05:26:38.491Z,25.20
2023-04-16T05:29:10.912Z,26.30
2023-04-16T05:31:58.751Z,18.00
2023-04-16T05:34:32.953Z,25.30
2023-04-16T05:37:04.217Z,28.00
2023-04-16T05:39:35.970Z,29.80
2023-04-16T05:42:10.688Z,25.50
2023-04-16T05:44:40.393Z,26.00
2023-04-16T05:47:25.836Z,28.20
2023-04-16T05:50:20.357Z,23.40
2023-04-16T05:52:57.047Z,30.20
2023-04-16T05:55:37.023Z,33.00
2023-04-16T05:58:30.232Z,32.30
2023-04-16T06:01:07.844Z,21.80
2023-04-16T06:04:02.343Z,25.50
2023-04-16T06:06:31.742Z,29.60
2023-04-16T06:09:19.373Z,21.90
2023-04-16T06:11:53.293Z,36.70
2023-04-16T06:14:24.633Z,48.80
2023-04-16T06:16:59.558Z,24.50
2023-04-16T06:19:37.468Z,35.40
2023-04-16T06:22:10.242Z,29.40
2023-04-16T06:24:39.575Z,27.40
2023-04-16T06:27:14.784Z,27.50
2023-04-16T06:29:58.619Z,31.50
2023-04-16T06:32:35.264Z,29.20
2023-04-16T06:35:15.186Z,30.40
2023-04-16T06:37:51.208Z,13.80
2023-04-16T06:40:43.538Z,27.70
2023-04-16T06:43:16.414Z,24.40
2023-04-16T06:45:53.822Z,23.30
2023-04-16T06:48:37.749Z,26.50
2023-04-16T06:51:09.638Z,18.10
2023-04-16T06:53:42.662Z,24.60
2023-04-16T06:56:14.880Z,27.30
2023-04-16T06:59:06.502Z,28.40
2023-04-16T07:01:38.787Z,22.60
2023-04-16T07:04:16.738Z,29.50
2023-04-16T07:06:52.522Z,30.70
2023-04-16T07:09:27.254Z,27.20
2023-04-16T07:12:09.523Z,23.30
2023-04-16T07:14:45.056Z,28.90
2023-04-16T07:17:20.235Z,25.80
2023-04-16T07:19:59.485Z,28.10
2023-04-16T07:22:36.664Z,28.00
2023-04-16T07:25:15.173Z,24.80
2023-04-16T07:27:52.684Z,25.30
2023-04-16T07:30:24.055Z,30.60
2023-04-16T07:32:56.790Z,25.60
2023-04-16T07:35:31.636Z,22.00
2023-04-16T07:38:03.209Z,20.90
2023-04-16T07:40:52.453Z,22.80
2023-04-16T07:43:21.654Z,28.10
2023-04-16T07:45:53.600Z,25.60
2023-04-16T07:48:28.773Z,30.80
2023-04-16T07:50:58.677Z,24.60
2023-04-16T07:53:28.051Z,29.00
2023-04-16T07:56:00.559Z,25.40
2023-04-16T07:58:29.533Z,30.00
2023-04-16T08:01:01.834Z,29.30
2023-04-16T08:03:32.270Z,31.40
2023-04-16T08:06:01.574Z,28.40
2023-04-16T08:08:31.059Z,26.80
2023-04-16T08:11:04.126Z,31.80
2023-04-16T08:13:33.902Z,31.50
2023-04-16T08:16:06.762Z,33.00
2023-04-16T08:18:35.924Z,25.30
2023-04-16T08:21:05.019Z,30.50
2023-04-16T08:23:37.092Z,31.40
2023-04-16T08:26:06.587Z,32.30
2023-04-16T08:28:36.098Z,30.70
2023-04-16T08:31:11.968Z,29.20
2023-04-16T08:33:41.609Z,23.20
2023-04-16T08:36:11.098Z,30.80
2023-04-16T08:38:40.733Z,33.10
2023-04-16T08:41:13.448Z,32.80
2023-04-16T08:43:49.204Z,32.50
2023-04-16T08:46:23.361Z,27.60
2023-04-16T08:48:56.543Z,26.60
2023-04-16T08:51:31.707Z,24.40
2023-04-16T08:54:05.001Z,30.40
2023-04-16T08:56:43.080Z,20.20
2023-04-16T08:59:12.910Z,30.50
2023-04-16T09:01:42.294Z,25.10
2023-04-16T09:04:11.753Z,27.30
2023-04-16T09:06:50.965Z,28.10
2023-04-16T09:09:22.167Z,25.70
2023-04-16T09:11:55.136Z,20.70
2023-04-16T09:14:24.276Z,24.30
2023-04-16T09:16:55.994Z,24.50
2023-04-16T09:19:27.587Z,23.60
2023-04-16T09:21:57.037Z,23.00
2023-04-16T09:24:47.346Z,22.20
2023-04-16T09:27:17.482Z,21.40
2023-04-16T09:29:52.319Z,19.00
2023-04-16T09:32:30.341Z,21.70
2023-04-16T09:35:01.617Z,19.10
2023-04-16T09:37:31.978Z,20.00
2023-04-16T09:40:04.841Z,17.70
2023-04-16T09:42:37.599Z,19.20
2023-04-16T09:45:09.005Z,19.00
2023-04-16T09:47:43.977Z,18.60
2023-04-16T09:50:18.609Z,20.20
2023-04-16T09:52:53.785Z,14.40
2023-04-16T09:55:28.119Z,15.50
2023-04-16T09:58:03.044Z,21.60
2023-04-16T10:00:31.945Z,19.90
2023-04-16T10:03:07.803Z,20.40
2023-04-16T10:05:38.836Z,16.90
2023-04-16T10:08:17.643Z,14.40
2023-04-16T10:10:46.727Z,12.00
2023-04-16T10:13:17.879Z,14.60
2023-04-16T10:15:47.034Z,14.70
2023-04-16T10:18:16.803Z,14.80
2023-04-16T10:20:46.309Z,13.70
2023-04-16T10:23:16.358Z,12.80
2023-04-16T10:25:57.542Z,9.60
2023-04-16T10:28:27.737Z,10.20
2023-04-16T10:30:59.034Z,11.10
2023-04-16T10:33:33.281Z,11.80
2023-04-16T10:36:23.352Z,8.90
2023-04-16T10:38:54.121Z,8.30
2023-04-16T10:41:23.500Z,8.90
2023-04-16T10:43:52.908Z,9.60
2023-04-16T10:46:23.609Z,9.00
2023-04-16T10:49:00.208Z,6.80
2023-04-16T10:51:28.931Z,4.70
2023-04-16T10:54:10.381Z,6.00
2023-04-16T10:56:38.862Z,7.60
2023-04-16T10:59:11.963Z,6.50
2023-04-16T11:01:46.125Z,5.90
2023-04-16T11:04:20.828Z,4.60
2023-04-16T11:07:04.572Z,5.00
2023-04-16T11:09:54.440Z,6.30
2023-04-16T11:12:44.987Z,5.90
2023-04-16T11:15:19.624Z,6.80
2023-04-16T11:17:52.061Z,5.60
2023-04-16T11:20:29.099Z,6.50
2023-04-16T11:22:58.275Z,6.10
2023-04-16T11:25:34.469Z,5.60
2023-04-16T11:28:03.939Z,7.00
2023-04-16T11:30:37.885Z,6.50
2023-04-16T11:33:09.397Z,7.40
2023-04-16T11:35:41.771Z,6.70
2023-04-16T11:38:10.229Z,6.30
2023-04-16T11:40:42.559Z,6.60
2023-04-16T11:43:15.829Z,7.60
2023-04-16T11:45:57.328Z,6.80
2023-04-16T11:48:25.873Z,5.80
2023-04-16T11:50:58.180Z,6.40
2023-04-16T11:53:27.375Z,6.30
2023-04-16T11:55:55.708Z,6.10
2023-04-16T11:58:24.031Z,6.80
2023-04-16T12:00:58.257Z,6.40
2023-04-16T12:03:47.209Z,6.60
2023-04-16T12:06:15.757Z,6.70
2023-04-16T12:08:44.888Z,6.60
2023-04-16T12:11:13.256Z,7.10
2023-04-16T12:13:41.645Z,7.10
2023-04-16T12:16:19.835Z,7.40
2023-04-16T12:19:03.079Z,6.40
2023-04-16T12:22:00.936Z,8.30
2023-04-16T12:24:32.597Z,7.20
2023-04-16T12:27:03.248Z,6.90
2023-04-16T12:29:32.340Z,6.70
2023-04-16T12:32:02.035Z,6.30
2023-04-16T12:34:48.893Z,7.10
2023-04-16T12:37:18.150Z,6.30
2023-04-16T12:39:48.070Z,5.40
2023-04-16T12:42:16.865Z,5.70
2023-04-16T12:44:47.054Z,4.90
2023-04-16T12:47:15.963Z,4.90
2023-04-16T12:49:45.186Z,4.50
2023-04-16T12:52:13.656Z,4.30
2023-04-16T12:54:42.237Z,4.40
2023-04-16T12:57:12.252Z,5.00
2023-04-16T12:59:40.525Z,3.50
2023-04-16T13:02:09.166Z,3.60
2023-04-16T13:04:38.028Z,4.90
2023-04-16T13:07:06.988Z,4.90
2023-04-16T13:09:37.763Z,3.90
2023-04-16T13:12:08.274Z,4.20
2023-04-16T13:14:37.380Z,5.10
2023-04-16T13:17:06.116Z,3.30
2023-04-16T13:19:34.928Z,3.20
2023-04-16T13:22:04.140Z,3.70
2023-04-16T13:24:33.119Z,3.30
2023-04-16T13:27:01.991Z,3.90
2023-04-16T13:29:31.112Z,4.80
2023-04-16T13:31:59.717Z,3.40
2023-04-16T13:34:28.979Z,4.30
2023-04-16T13:36:57.453Z,4.20
2023-04-16T13:39:26.070Z,3.40
2023-04-16T13:41:54.673Z,3.50
2023-04-16T13:44:23.826Z,3.90
2023-04-16T13:46:53.897Z,3.40
2023-04-16T13:49:23.033Z,3.30
2023-04-16T13:51:51.525Z,4.00
2023-04-16T13:54:19.902Z,4.50
2023-04-16T13:56:51.511Z,4.50
2023-04-16T13:59:20.453Z,3.20
2023-04-16T14:01:48.957Z,3.10
2023-04-16T14:04:17.597Z,2.60
2023-04-16T14:06:46.609Z,3.00
2023-04-16T14:09:15.271Z,3.20
2023-04-16T14:11:43.806Z,3.20
2023-04-16T14:14:12.665Z,3.40
2023-04-16T14:16:41.415Z,2.40
2023-04-16T14:19:11.062Z,3.10
2023-04-16T14:21:39.846Z,3.60
2023-04-16T14:24:09.358Z,3.80
2023-04-16T14:26:37.815Z,3.00
2023-04-16T14:29:07.120Z,3.30
2023-04-16T14:31:35.837Z,2.80
2023-04-16T14:34:04.403Z,3.10
2023-04-16T14:36:33.291Z,3.50
2023-04-16T14:39:02.394Z,2.40
2023-04-16T14:41:31.167Z,3.00
2023-04-16T14:44:00.082Z,3.60
2023-04-16T14:46:28.534Z,3.30
2023-04-16T14:48:57.032Z,2.90
2023-04-16T14:51:27.579Z,2.90
2023-04-16T14:53:56.871Z,2.80
2023-04-16T14:56:26.377Z,3.70
2023-04-16T14:58:55.272Z,2.40
2023-04-16T15:01:24.656Z,2.40
2023-04-16T15:03:57.118Z,4.20
2023-04-16T15:06:26.548Z,4.20
2023-04-16T15:08:54.887Z,3.20
2023-04-16T15:11:23.582Z,2.60
2023-04-16T15:13:52.609Z,4.70
2023-04-16T15:16:21.320Z,3.70
2023-04-16T15:18:50.709Z,2.30
2023-04-16T15:21:19.289Z,2.60
2023-04-16T15:23:47.753Z,2.60
2023-04-16T15:26:16.561Z,4.60
2023-04-16T15:28:45.341Z,3.30
2023-04-16T15:31:13.816Z,2.10
2023-04-16T15:33:42.160Z,2.80
2023-04-16T15:36:11.703Z,2.50
2023-04-16T15:38:40.152Z,2.70
2023-04-16T15:41:10.704Z,3.60
2023-04-16T15:43:40.159Z,2.60
2023-04-16T15:46:09.285Z,2.60
2023-04-16T15:48:37.992Z,2.80
2023-04-16T15:51:06.815Z,2.40
2023-04-16T15:53:35.363Z,2.20
2023-04-16T15:56:03.954Z,2.80
2023-04-16T15:58:32.471Z,2.40
2023-04-16T16:01:01.033Z,3.40
2023-04-16T16:03:32.445Z,2.30
2023-04-16T16:06:06.929Z,2.80
2023-04-16T16:08:42.687Z,2.30
2023-04-16T16:11:15.592Z,2.00
2023-04-16T16:13:45.772Z,2.40
2023-04-16T16:16:15.203Z,3.20
2023-04-16T16:18:48.360Z,4.40
2023-04-16T16:21:17.250Z,3.70
2023-04-16T16:23:47.054Z,5.00
2023-04-16T16:26:15.840Z,3.80
2023-04-16T16:28:45.157Z,4.00
2023-04-16T16:31:13.878Z,5.40
2023-04-16T16:33:43.231Z,5.20
2023-04-16T16:36:12.766Z,6.00
2023-04-16T16:38:42.756Z,4.60
2023-04-16T16:41:11.750Z,4.50
2023-04-16T16:43:40.651Z,5.00
2023-04-16T16:46:10.235Z,3.60
2023-04-16T16:48:39.028Z,6.80
2023-04-16T16:51:10.852Z,4.30
2023-04-16T16:53:39.808Z,5.60
2023-04-16T16:56:08.986Z,7.20
2023-04-16T16:58:38.188Z,5.20
2023-04-16T17:05:01.429Z,5.50
2023-04-16T17:07:55.548Z,4.70
2023-04-16T17:10:39.939Z,6.00
2023-04-16T17:13:09.369Z,6.30
2023-04-16T17:15:39.022Z,5.10
2023-04-16T17:18:08.497Z,4.70
2023-04-16T17:20:37.784Z,5.80
2023-04-16T17:23:07.591Z,6.20
2023-04-16T17:25:37.114Z,5.60
2023-04-16T17:28:08.447Z,6.60
2023-04-16T17:30:39.269Z,6.70
2023-04-16T17:33:08.923Z,7.70
2023-04-16T17:35:42.092Z,6.60
2023-04-16T17:38:17.017Z,5.80
2023-04-16T17:40:46.408Z,5.20
2023-04-16T17:43:15.702Z,5.20
2023-04-16T17:45:45.160Z,5.60
2023-04-16T17:48:16.042Z,6.20
2023-04-16T17:50:46.275Z,6.10
2023-04-16T17:53:15.959Z,7.20
2023-04-16T17:55:56.707Z,7.30
2023-04-16T17:58:28.173Z,7.80
2023-04-16T18:00:58.784Z,9.30
2023-04-16T18:03:33.929Z,8.50
2023-04-16T18:06:05.425Z,7.40
2023-04-16T18:08:39.038Z,7.30
2023-04-16T18:11:10.173Z,7.40
2023-04-16T18:13:41.834Z,7.00
2023-04-16T18:16:17.214Z,7.50
2023-04-16T18:18:46.490Z,6.90
2023-04-16T18:21:15.622Z,8.90
2023-04-16T18:23:48.908Z,10.30
2023-04-16T18:26:22.397Z,9.00
2023-04-16T18:28:53.421Z,9.30
2023-04-16T18:31:23.262Z,8.40
2023-04-16T18:33:58.027Z,8.00
2023-04-16T18:36:27.634Z,8.20
2023-04-16T18:39:01.717Z,8.70
2023-04-16T18:41:31.550Z,8.30
2023-04-16T18:44:01.053Z,7.50
2023-04-16T18:46:30.685Z,8.70
2023-04-16T18:49:00.671Z,8.70
2023-04-16T18:51:30.714Z,8.60
2023-04-16T18:53:59.681Z,7.70
2023-04-16T18:56:31.436Z,8.70
2023-04-16T18:59:00.637Z,8.10
2023-04-16T19:01:29.992Z,8.60
2023-04-16T19:03:59.053Z,7.60
2023-04-16T19:06:29.498Z,8.60
2023-04-16T19:08:58.379Z,9.90
2023-04-16T19:11:27.262Z,10.50
2023-04-16T19:13:57.788Z,12.60
2023-04-16T19:16:29.673Z,9.00
2023-04-16T19:18:58.612Z,8.40
2023-04-16T19:21:28.227Z,10.60
2023-04-16T19:23:56.897Z,10.60
2023-04-16T19:26:27.381Z,11.60
2023-04-16T19:28:56.885Z,12.60
2023-04-16T19:31:26.687Z,8.80
2023-04-16T19:33:58.539Z,9.40
2023-04-16T19:36:27.950Z,10.80
2023-04-16T19:38:56.793Z,10.40
2023-04-16T19:41:26.375Z,9.50
2023-04-16T19:43:55.655Z,9.10
2023-04-16T19:46:26.445Z,9.80
2023-04-16T19:48:56.987Z,8.80
2023-04-16T19:51:27.394Z,8.80
2023-04-16T19:53:56.638Z,8.60
2023-04-16T19:56:25.928Z,9.50
2023-04-16T19:58:56.240Z,9.20
2023-04-16T20:01:25.371Z,11.30
2023-04-16T20:03:55.085Z,10.10
2023-04-16T20:06:24.485Z,11.50
2023-04-16T20:08:53.450Z,11.70
2023-04-16T20:11:22.762Z,10.70
2023-04-16T20:13:51.365Z,10.50
2023-04-16T20:16:24.190Z,9.50
2023-04-16T20:18:54.595Z,10.50
2023-04-16T20:21:24.274Z,12.30
2023-04-16T20:23:53.366Z,11.70
2023-04-16T20:26:24.509Z,11.40
2023-04-16T20:28:53.750Z,11.50
2023-04-16T20:31:23.048Z,12.80
2023-04-16T20:33:51.995Z,11.10
2023-04-16T20:36:21.889Z,11.90
2023-04-16T20:38:53.819Z,12.20
2023-04-16T20:41:25.516Z,12.40
2023-04-16T20:43:54.899Z,11.30
2023-04-16T20:46:30.622Z,12.40
2023-04-16T20:49:04.721Z,10.60
2023-04-16T20:51:34.084Z,15.00
2023-04-16T20:54:04.759Z,11.90
2023-04-16T20:56:34.330Z,11.00
2023-04-16T20:59:14.066Z,10.20
2023-04-16T21:01:44.607Z,8.60
2023-04-16T21:04:18.741Z,9.00
2023-04-16T21:06:51.602Z,9.70
2023-04-16T21:09:22.170Z,14.40
2023-04-16T21:11:55.253Z,11.30
2023-04-16T21:14:25.139Z,10.30
2023-04-16T21:16:54.962Z,12.10
2023-04-16T21:19:23.617Z,10.40
2023-04-16T21:21:52.437Z,9.20
2023-04-16T21:24:21.420Z,11.90
2023-04-16T21:26:49.992Z,12.10
2023-04-16T21:29:21.139Z,11.50
2023-04-16T21:31:49.683Z,11.00
2023-04-16T21:34:21.069Z,11.80
2023-04-16T21:36:52.328Z,11.60
2023-04-16T21:39:31.342Z,8.60
2023-04-16T21:42:00.051Z,7.90
2023-04-16T21:44:28.733Z,9.90
2023-04-16T21:46:57.414Z,11.70
2023-04-16T21:49:28.648Z,12.20
2023-04-16T21:51:59.442Z,12.60
2023-04-16T21:54:28.268Z,11.10
2023-04-16T21:56:58.495Z,14.30
2023-04-16T21:59:27.089Z,11.30
2023-04-16T22:01:56.167Z,13.00
2023-04-16T22:04:26.573Z,13.60
2023-04-16T22:06:57.999Z,14.30
2023-04-16T22:09:26.536Z,12.20
2023-04-16T22:11:57.977Z,11.90
2023-04-16T22:14:26.795Z,14.10
2023-04-16T22:16:56.836Z,12.10
2023-04-16T22:19:28.379Z,13.20
2023-04-16T22:21:57.442Z,13.50
2023-04-16T22:24:28.299Z,14.50
2023-04-16T22:26:57.396Z,15.20
2023-04-16T22:29:26.674Z,14.30
2023-04-16T22:31:55.698Z,15.20
2023-04-16T22:34:24.661Z,14.90
2023-04-16T22:36:56.564Z,13.60
2023-04-16T22:39:25.754Z,15.30
2023-04-16T22:41:54.587Z,15.40
2023-04-16T22:44:23.405Z,12.90
2023-04-16T22:47:06.110Z,11.70
2023-04-16T22:49:35.206Z,11.40
2023-04-16T22:52:03.952Z,14.50
2023-04-16T22:54:37.795Z,14.10
2023-04-16T22:57:06.382Z,11.20
2023-04-16T22:59:34.798Z,14.50
2023-04-16T23:02:03.516Z,14.20
2023-04-16T23:04:33.048Z,15.80
2023-04-16T23:07:10.956Z,14.40
2023-04-16T23:09:44.579Z,16.20
2023-04-16T23:12:16.018Z,17.60
2023-04-16T23:14:46.213Z,17.80
2023-04-16T23:17:20.278Z,17.10
2023-04-16T23:19:51.615Z,16.60
2023-04-16T23:22:20.473Z,16.20
2023-04-16T23:24:49.275Z,17.20
2023-04-16T23:27:32.700Z,17.50
2023-04-16T23:30:01.564Z,16.10
2023-04-16T23:32:30.602Z,17.60
2023-04-16T23:35:02.361Z,15.60
2023-04-16T23:37:36.376Z,15.20
2023-04-16T23:40:08.360Z,15.10
2023-04-16T23:42:37.110Z,16.50
2023-04-16T23:45:12.460Z,16.70
2023-04-16T23:47:44.705Z,14.90
2023-04-16T23:50:16.064Z,17.20
2023-04-16T23:52:44.877Z,17.30
2023-04-16T23:55:18.738Z,15.30
2023-04-16T23:57:47.857Z,14.10
